x

Halibut Bank (46146) Wave Buoy

6:00 - Thu 28th Aug 2014 All times are PDT. -7 hours from GMT.

  • Sig Wave height 1.3ft
  • Peak Period 3s
  • Wind
    16mph, 18mph gusts
  • Sea Temp 67°f
  • Ar Temp 66°f
  • Sea Pressure 1015.7mb
  • Halibut Bank
  • Halibut Bank

More Historic Weather Station data

Upgrade to MSW Pro to gain access to the past 30 days of data for over 8000 Wavebouys and Weather Stations around the globe.

Join Pro

Comparision Forecast

View Surf forecast
   
Qui 08/28 6:00 1.3ft 3s 16 18 mph 1015.7mb 67f 66f
5:00 1.3ft 3s 16 18 mph 1016.3mb 67f 65f
4:00 1.3ft 3s 13 16 mph 1016.9mb 68f 66f
3:00 1ft 3s 13 16 mph 1017.5mb 67f 65f
2:00 1.3ft 3s 13 16 mph 1017.8mb 67f 65f
1:00 1.3ft 3s 13 16 mph 1018.1mb 67f 64f
12:00 1ft 3s 13
mph
1018.3mb 66f 64f
11:00 1ft 3s 13
mph
1018.3mb 67f 63f
10:00 1.3ft 3s 11 13 mph 1018mb 66f 63f
9:00 1.3ft 4s 13 16 mph 1017.6mb 66f 62f
8:00 1.3ft 4s 13 16 mph 1017.1mb 66f 62f
7:00 1.3ft 3s 18 20 mph 1016.4mb 66f 62f
6:00 1ft 3s 13 16 mph 1016.3mb 66f 63f
5:00 1ft 3s 13 16 mph 1015.9mb 66f 64f
4:00 1ft 3s 4 7 mph 1015.7mb 67f 66f
3:00 0.3ft 3s 2 9 mph 1015.6mb 67f 66f
2:00 0.3ft 3s 4 7 mph 1015.4mb 67f 65f
1:00 0.3ft 3s 4
mph
1015.3mb 67f 66f
12:00 0.3ft 2s 2
mph
1015mb 68f 66f
Qua 08/27 11:00 0.7ft 2s 4 7 mph 1014.8mb 68f 68f
10:00 0.7ft 2s 4 7 mph 1014.7mb 68f 68f
9:00 0.7ft 6s 11 13 mph 1014.4mb 68f 69f
8:00 0.3ft 2s 9 11 mph 1014.1mb 68f 69f
7:00 0.3ft 2s 9 11 mph 1014.1mb 68f 69f
6:00 0.3ft 4s 9 11 mph 1014.5mb 68f 68f
5:00 0.3ft 5s 9
mph
1015mb 71f 68f
4:00 0.3ft 3s 9
mph
1015.4mb 70f 67f
3:00 0.7ft 3s 7
mph
1015.9mb 72f 68f
2:00 0.7ft 3s 2 4 mph 1016.3mb 72f 68f
1:00 1ft 3s 2 4 mph 1016.7mb 70f 67f
12:00 0.7ft 3s 4 7 mph 1016.9mb 70f 66f
11:00 0.7ft 3s 9 11 mph 1017.1mb 70f 65f
10:00 0.7ft 7s 11 13 mph 1017.1mb 69f 65f
9:00 0.7ft 3s 9 11 mph 1016.8mb 69f 65f
8:00 1ft 3s 9 11 mph 1016.8mb 68f 65f
7:00 1ft 3s 11
mph
1016.5mb 67f 65f
6:00 0.7ft 3s 9 11 mph 1016.1mb 68f 66f
5:00 0.3ft 2s 11 13 mph 1015.7mb 68f 66f
4:00 0.3ft 3s 4 7 mph 1015.7mb 69f 67f
3:00 0.3ft 4s  -  2 mph 1015.8mb 69f 66f
2:00 0.3ft 4s 2
mph
1015.5mb 69f 66f
1:00 0.3ft 3s 2
mph
1015.3mb 69f 67f
12:00 0.3ft 5s 2
mph
1015.1mb 69f 67f
Ter 08/26 11:00 0.3ft 6s  -  2 mph 1015mb 69f 68f
10:00 0.3ft 3s 2
mph
1014.9mb 69f 67f
9:00 0.3ft 4s 2
mph
1014.9mb 71f 68f
8:00 0.3ft 4s  -  mph 1014.6mb 71f 68f
7:00 0.3ft 3s  -  2 mph 1014.5mb 70f 72f
6:00 0.3ft 5s  -  mph 1014.9mb 71f 70f
5:00 0.3ft 3s  -  2 mph 1015.3mb 73f 70f
4:00 0.3ft 6s 4
mph
1015.9mb 72f 69f
3:00 0.3ft 3s 4
mph
1016.7mb 71f 69f
2:00 0.3ft 4s 2 4 mph 1017.2mb 73f 69f
1:00 0.3ft 4s 2
mph
1017.6mb 70f 68f
12:00 0.3ft 5s 2
mph
1017.8mb 70f 67f
11:00 0.3ft 2s 2 4 mph 1018mb 68f 67f
10:00 0.3ft 6s 4 7 mph 1017.9mb 68f 66f
9:00 0.3ft 2s 7 9 mph 1017.7mb 67f 65f
8:00 0.3ft 6s 4 7 mph 1017.5mb 67f 65f
7:00 0.3ft 2s 2
mph
1017.2mb 67f 65f
6:00 0.3ft 2s 4
mph
1016.8mb 67f 65f
5:00 0.3ft 2s 2
mph
1016.5mb 67f 65f
4:00 0.3ft 2s 4
mph
1016.5mb 66f 65f
3:00 0.3ft 2s  -  mph 1016.4mb 67f 66f
2:00 0.3ft 3s 4
mph
1016.3mb 67f 65f
1:00 0.3ft 2s 2 4 mph 1016mb 67f 66f
12:00 0.7ft 3s 2 4 mph 1015.8mb 67f 68f
Seg 08/25 11:00 0.7ft 3s 7 9 mph 1015.5mb 67f 68f
10:00 0.7ft 3s 9 11 mph 1015.2mb 68f 68f
9:00 0.7ft 3s 4 7 mph 1015mb 67f 69f
8:00 0.7ft 3s  -  2 mph 1014.7mb 67f 68f
7:00 1ft 3s 4 7 mph 1014.3mb 68f 68f
6:00 1ft 3s 9
mph
1014.5mb 68f 67f
5:00 0.7ft 2s 9 11 mph 1014.7mb 68f 66f
4:00 0.7ft 3s 9 11 mph 1015.3mb 67f 66f
3:00 1ft 3s 9 11 mph 1015.8mb 67f 65f
2:00 1ft 3s 7 9 mph 1016.1mb 67f 65f
1:00 1ft 3s 9 11 mph 1016.5mb 66f 64f
12:00 1ft 3s 11 13 mph 1017mb 67f 64f
11:00 1ft 3s 11 13 mph 1017.3mb 66f 63f
10:00 1ft 3s 11 13 mph 1017mb 66f 63f
9:00 1.3ft 4s 9 11 mph 1016.9mb 66f 63f
8:00 1.3ft 3s 13 18 mph 1016.8mb 66f 63f
7:00 1.3ft 3s 13 16 mph 1016.1mb 66f 63f
6:00 1.3ft 3s 13 18 mph 1016mb 66f 63f
5:00 1.3ft 4s 16 18 mph 1015.7mb 67f 64f
4:00 1.3ft 4s 13 16 mph 1015.4mb 66f 65f
3:00 1.3ft 4s 13 16 mph 1015.6mb 67f 65f